createdAt,value
2023-01-13T00:00:04.221Z,10.24
2023-01-13T00:02:30.690Z,10.19
2023-01-13T00:04:57.193Z,10.18
2023-01-13T00:07:23.666Z,10.16
2023-01-13T00:09:50.109Z,10.13
2023-01-13T00:12:16.578Z,10.12
2023-01-13T00:14:43.027Z,10.12
2023-01-13T00:17:09.422Z,10.08
2023-01-13T00:19:35.839Z,10.08
2023-01-13T00:22:02.275Z,10.09
2023-01-13T00:24:28.679Z,10.17
2023-01-13T00:26:55.183Z,10.19
2023-01-13T00:29:21.681Z,10.15
2023-01-13T00:31:49.187Z,10.11
2023-01-13T00:34:15.599Z,10.11
2023-01-13T00:36:42.089Z,10.07
2023-01-13T00:39:08.743Z,10.06
2023-01-13T00:41:55.102Z,10.05
2023-01-13T00:44:21.583Z,10.12
2023-01-13T00:46:48.102Z,10.11
2023-01-13T00:49:14.557Z,10.10
2023-01-13T00:51:40.968Z,9.99
2023-01-13T00:54:07.806Z,9.98
2023-01-13T00:56:40.107Z,10.05
2023-01-13T00:59:11.022Z,10.04
2023-01-13T01:01:37.645Z,10.00
2023-01-13T01:04:04.434Z,10.00
2023-01-13T01:06:31.023Z,10.01
2023-01-13T01:08:57.690Z,10.01
2023-01-13T01:11:29.979Z,10.02
2023-01-13T01:13:58.412Z,9.96
2023-01-13T01:16:30.447Z,9.94
2023-01-13T01:18:57.881Z,9.90
2023-01-13T01:21:26.034Z,9.86
2023-01-13T01:23:53.239Z,9.89
2023-01-13T01:26:22.198Z,9.94
2023-01-13T01:28:48.800Z,9.99
2023-01-13T01:31:23.017Z,9.96
2023-01-13T01:33:50.206Z,9.90
2023-01-13T01:36:19.055Z,9.82
2023-01-13T01:38:46.132Z,9.84
2023-01-13T01:41:20.346Z,9.80
2023-01-13T01:44:05.930Z,9.79
2023-01-13T01:46:44.420Z,9.73
2023-01-13T01:49:20.510Z,9.69
2023-01-13T01:51:52.331Z,9.64
2023-01-13T01:54:35.445Z,9.62
2023-01-13T01:57:02.187Z,9.68
2023-01-13T01:59:32.009Z,9.73
2023-01-13T02:01:58.773Z,9.67
2023-01-13T02:04:32.104Z,9.54
2023-01-13T02:06:58.789Z,9.57
2023-01-13T02:09:26.060Z,9.58
2023-01-13T02:12:11.143Z,9.51
2023-01-13T02:14:38.924Z,9.47
2023-01-13T02:17:17.352Z,9.40
2023-01-13T02:20:09.437Z,9.33
2023-01-13T02:22:54.203Z,9.34
2023-01-13T02:25:38.845Z,9.30
2023-01-13T02:28:34.897Z,9.22
2023-01-13T02:31:27.751Z,9.25
2023-01-13T02:34:09.247Z,9.16
2023-01-13T02:37:07.951Z,9.11
2023-01-13T02:40:09.699Z,9.06
2023-01-13T02:43:06.319Z,8.97
2023-01-13T02:45:39.825Z,8.91
2023-01-13T02:48:08.916Z,8.86
2023-01-13T02:50:50.831Z,8.87
2023-01-13T02:53:28.231Z,8.76
2023-01-13T02:55:57.473Z,8.66
2023-01-13T02:58:27.305Z,8.57
2023-01-13T03:00:53.957Z,8.57
2023-01-13T03:03:20.841Z,8.56
2023-01-13T03:05:49.651Z,8.59
2023-01-13T03:08:34.804Z,8.58
2023-01-13T03:11:10.089Z,8.54
2023-01-13T03:13:47.638Z,8.48
2023-01-13T03:16:26.147Z,8.48
2023-01-13T03:19:05.243Z,8.42
2023-01-13T03:22:05.178Z,8.33
2023-01-13T03:24:39.313Z,8.26
2023-01-13T03:27:18.942Z,8.17
2023-01-13T03:30:03.593Z,8.18
2023-01-13T03:32:37.884Z,8.15
2023-01-13T03:35:25.870Z,8.14
2023-01-13T03:37:59.630Z,8.13
2023-01-13T03:40:33.326Z,8.15
2023-01-13T03:43:29.173Z,8.11
2023-01-13T03:45:59.816Z,8.11
2023-01-13T03:48:29.696Z,8.10
2023-01-13T03:51:03.778Z,8.03
2023-01-13T03:53:36.240Z,8.01
2023-01-13T03:56:09.885Z,7.98
2023-01-13T03:58:42.403Z,7.98
2023-01-13T04:01:39.129Z,7.94
2023-01-13T04:04:09.278Z,7.92
2023-01-13T04:07:18.370Z,7.88
2023-01-13T04:09:50.927Z,7.87
2023-01-13T04:12:25.231Z,7.82
2023-01-13T04:14:54.281Z,7.79
2023-01-13T04:17:21.382Z,7.80
2023-01-13T04:19:47.821Z,7.82
2023-01-13T04:22:14.243Z,7.79
2023-01-13T04:24:40.681Z,7.77
2023-01-13T04:27:07.255Z,7.77
2023-01-13T04:29:33.678Z,7.80
2023-01-13T04:32:00.099Z,7.83
2023-01-13T04:34:28.388Z,7.83
2023-01-13T04:36:55.288Z,7.86
2023-01-13T04:39:21.764Z,7.85
2023-01-13T04:42:01.305Z,7.82
2023-01-13T04:44:28.517Z,7.82
2023-01-13T04:46:54.963Z,7.81
2023-01-13T04:49:21.462Z,7.82
2023-01-13T04:51:47.916Z,7.84
2023-01-13T04:54:14.441Z,7.89
2023-01-13T04:56:40.885Z,7.88
2023-01-13T04:59:07.335Z,7.88
2023-01-13T05:01:33.937Z,7.88
2023-01-13T05:04:00.432Z,7.93
2023-01-13T05:06:26.890Z,7.94
2023-01-13T05:08:53.354Z,7.92
2023-01-13T05:11:38.194Z,7.93
2023-01-13T05:14:23.294Z,7.92
2023-01-13T05:17:02.241Z,7.87
2023-01-13T05:19:36.887Z,7.92
2023-01-13T05:22:22.455Z,7.93
2023-01-13T05:25:07.904Z,7.96
2023-01-13T05:27:34.843Z,7.98
2023-01-13T05:30:01.460Z,7.96
2023-01-13T05:32:28.319Z,7.96
2023-01-13T05:34:55.866Z,7.93
2023-01-13T05:37:23.684Z,7.93
2023-01-13T05:40:09.143Z,7.87
2023-01-13T05:42:54.295Z,7.85
2023-01-13T05:45:20.752Z,7.88
2023-01-13T05:47:47.272Z,7.88
2023-01-13T05:50:13.804Z,7.96
2023-01-13T05:52:40.332Z,7.96
2023-01-13T05:55:07.291Z,7.96
2023-01-13T05:57:33.702Z,7.98
2023-01-13T06:00:00.127Z,8.03
2023-01-13T06:02:26.721Z,7.96
2023-01-13T06:04:53.167Z,7.92
2023-01-13T06:07:19.694Z,7.90
2023-01-13T06:09:46.151Z,7.95
2023-01-13T06:12:13.843Z,7.95
2023-01-13T06:14:40.601Z,7.97
2023-01-13T06:17:12.047Z,7.97
2023-01-13T06:19:38.813Z,7.94
2023-01-13T06:22:19.349Z,7.96
2023-01-13T06:24:46.307Z,8.01
2023-01-13T06:27:13.062Z,8.04
2023-01-13T06:29:39.570Z,7.97
2023-01-13T06:32:11.328Z,7.96
2023-01-13T06:34:38.759Z,7.94
2023-01-13T06:37:05.876Z,7.95
2023-01-13T06:39:32.753Z,7.97
2023-01-13T06:42:18.313Z,7.90
2023-01-13T06:44:45.820Z,7.92
2023-01-13T06:47:12.565Z,7.87
2023-01-13T06:49:38.982Z,7.83
2023-01-13T06:52:05.996Z,7.86
2023-01-13T06:54:32.457Z,7.84
2023-01-13T06:56:58.897Z,7.82
2023-01-13T06:59:25.807Z,7.86
2023-01-13T07:01:52.466Z,7.83
2023-01-13T07:04:19.410Z,7.81
2023-01-13T07:06:45.866Z,7.82
2023-01-13T07:09:12.632Z,7.82
2023-01-13T07:11:39.093Z,7.82
2023-01-13T07:14:24.245Z,7.79
2023-01-13T07:16:52.643Z,7.75
2023-01-13T07:19:23.618Z,7.77
2023-01-13T07:21:53.342Z,7.84
2023-01-13T07:24:20.657Z,7.85
2023-01-13T07:26:47.072Z,7.85
2023-01-13T07:29:13.937Z,7.76
2023-01-13T07:31:40.455Z,7.84
2023-01-13T07:34:07.351Z,7.76
2023-01-13T07:36:34.358Z,7.75
2023-01-13T07:39:01.387Z,7.75
2023-01-13T07:41:46.509Z,7.71
2023-01-13T07:44:13.264Z,7.64
2023-01-13T07:46:40.468Z,7.62
2023-01-13T07:49:08.257Z,7.70
2023-01-13T07:51:38.703Z,7.66
2023-01-13T07:54:05.521Z,7.66
2023-01-13T07:56:32.524Z,7.69
2023-01-13T07:59:00.512Z,7.72
2023-01-13T08:01:31.915Z,7.76
2023-01-13T08:03:58.971Z,7.72
2023-01-13T08:06:26.473Z,7.67
2023-01-13T08:08:53.416Z,7.65
2023-01-13T08:11:22.149Z,7.63
2023-01-13T08:13:50.017Z,7.64
2023-01-13T08:16:16.633Z,7.65
2023-01-13T08:18:43.462Z,7.61
2023-01-13T08:21:13.929Z,7.64
2023-01-13T08:23:42.076Z,7.65
2023-01-13T08:26:15.098Z,7.74
2023-01-13T08:28:41.899Z,7.79
2023-01-13T08:31:11.477Z,7.78
2023-01-13T08:33:38.339Z,7.79
2023-01-13T08:36:10.733Z,7.77
2023-01-13T08:38:37.360Z,7.79
2023-01-13T08:41:16.159Z,7.79
2023-01-13T08:43:42.639Z,7.83
2023-01-13T08:46:09.360Z,7.81
2023-01-13T08:48:35.934Z,7.77
2023-01-13T08:51:07.620Z,7.82
2023-01-13T08:53:34.553Z,7.92
2023-01-13T08:56:01.367Z,7.88
2023-01-13T08:58:27.920Z,7.91
2023-01-13T09:00:54.618Z,7.85
2023-01-13T09:03:21.154Z,7.91
2023-01-13T09:05:47.609Z,7.88
2023-01-13T09:08:14.085Z,7.93
2023-01-13T09:10:40.662Z,7.95
2023-01-13T09:13:13.198Z,7.94
2023-01-13T09:15:41.928Z,7.92
2023-01-13T09:18:08.953Z,7.94
2023-01-13T09:20:35.769Z,7.97
2023-01-13T09:23:02.441Z,8.00
2023-01-13T09:25:28.911Z,8.03
2023-01-13T09:27:56.292Z,8.04
2023-01-13T09:30:23.136Z,8.02
2023-01-13T09:32:49.846Z,8.04
2023-01-13T09:35:17.472Z,8.06
2023-01-13T09:37:44.653Z,8.08
2023-01-13T09:40:22.465Z,8.16
2023-01-13T09:43:21.351Z,8.14
2023-01-13T09:46:01.617Z,8.21
2023-01-13T09:48:51.867Z,8.26
2023-01-13T09:51:30.356Z,8.30
2023-01-13T09:54:06.610Z,8.26
2023-01-13T09:56:33.233Z,8.23
2023-01-13T09:58:59.762Z,8.30
2023-01-13T10:01:35.599Z,8.30
2023-01-13T10:04:11.571Z,8.29
2023-01-13T10:06:43.867Z,8.31
2023-01-13T10:09:34.107Z,8.28
2023-01-13T10:12:21.322Z,8.31
2023-01-13T10:14:54.920Z,8.35
2023-01-13T10:17:34.032Z,8.32
2023-01-13T10:20:21.283Z,8.36
2023-01-13T10:22:53.915Z,8.40
2023-01-13T10:25:58.796Z,8.37
2023-01-13T10:28:26.464Z,8.34
2023-01-13T10:30:53.009Z,8.37
2023-01-13T10:33:28.599Z,8.42
2023-01-13T10:36:15.023Z,8.45
2023-01-13T10:38:46.967Z,8.40
2023-01-13T10:41:16.503Z,8.39
2023-01-13T10:43:44.517Z,8.36
2023-01-13T10:46:13.514Z,8.45
2023-01-13T10:48:42.457Z,8.49
2023-01-13T10:51:18.420Z,8.58
2023-01-13T10:54:02.939Z,8.60
2023-01-13T10:56:34.360Z,8.67
2023-01-13T10:59:14.515Z,8.74
2023-01-13T11:02:13.036Z,8.73
2023-01-13T11:04:53.116Z,8.84
2023-01-13T11:07:31.485Z,8.89
2023-01-13T11:10:19.374Z,8.91
2023-01-13T11:13:02.026Z,8.91
2023-01-13T11:15:57.716Z,8.88
2023-01-13T11:19:02.429Z,8.89
2023-01-13T11:21:36.600Z,8.84
2023-01-13T11:24:51.186Z,8.82
2023-01-13T11:27:45.733Z,8.74
2023-01-13T11:30:24.480Z,8.75
2023-01-13T11:33:15.173Z,8.71
2023-01-13T11:35:47.587Z,8.80
2023-01-13T11:38:47.771Z,8.70
2023-01-13T11:41:38.874Z,8.60
2023-01-13T11:44:20.611Z,8.58
2023-01-13T11:46:52.199Z,8.56
2023-01-13T11:49:26.828Z,8.55
2023-01-13T11:52:01.012Z,8.63
2023-01-13T11:54:49.070Z,8.48
2023-01-13T11:57:37.307Z,8.42
2023-01-13T12:00:09.931Z,8.42
2023-01-13T12:02:58.452Z,8.45
2023-01-13T12:05:37.166Z,8.53
2023-01-13T12:08:18.536Z,8.49
2023-01-13T12:11:03.441Z,8.50
2023-01-13T12:13:45.567Z,8.50
2023-01-13T12:16:25.779Z,8.43
2023-01-13T12:19:18.730Z,8.47
2023-01-13T12:22:11.525Z,8.57
2023-01-13T12:24:45.951Z,8.60
2023-01-13T12:27:31.853Z,8.50
2023-01-13T12:30:01.898Z,8.51
2023-01-13T12:32:36.524Z,8.58
2023-01-13T12:35:05.877Z,8.45
2023-01-13T12:37:45.341Z,8.31
2023-01-13T12:40:38.637Z,8.20
2023-01-13T12:43:36.032Z,8.14
2023-01-13T12:46:23.468Z,8.16
2023-01-13T12:48:59.256Z,8.14
2023-01-13T12:51:37.590Z,8.07
2023-01-13T12:54:33.684Z,7.94
2023-01-13T12:57:00.606Z,7.87
2023-01-13T12:59:27.037Z,7.83
2023-01-13T13:02:11.949Z,7.81
2023-01-13T13:04:43.480Z,7.80
2023-01-13T13:07:17.307Z,7.83
2023-01-13T13:09:49.570Z,7.82
2023-01-13T13:12:49.994Z,7.80
2023-01-13T13:15:34.087Z,7.77
2023-01-13T13:18:21.899Z,7.76
2023-01-13T13:21:04.518Z,7.76
2023-01-13T13:23:37.314Z,7.74
2023-01-13T13:26:22.121Z,7.74
2023-01-13T13:29:19.231Z,7.74
2023-01-13T13:31:54.687Z,7.71
2023-01-13T13:34:29.193Z,7.72
2023-01-13T13:37:14.076Z,7.72
2023-01-13T13:40:01.238Z,7.72
2023-01-13T13:42:49.202Z,7.73
2023-01-13T13:45:40.062Z,7.73
2023-01-13T13:48:21.406Z,7.73
2023-01-13T13:50:49.759Z,7.74
2023-01-13T13:53:19.141Z,7.75
2023-01-13T13:55:57.451Z,7.77
2023-01-13T13:58:26.269Z,7.79
2023-01-13T14:00:54.082Z,7.78
2023-01-13T14:03:31.479Z,7.83
2023-01-13T14:06:06.963Z,7.88
2023-01-13T14:08:37.166Z,7.87
2023-01-13T14:11:27.591Z,7.92
2023-01-13T14:14:13.691Z,8.01
2023-01-13T14:16:41.282Z,7.98
2023-01-13T14:19:33.477Z,7.97
2023-01-13T14:22:02.221Z,7.98
2023-01-13T14:24:30.471Z,7.97
2023-01-13T14:27:17.871Z,7.93
2023-01-13T14:29:45.204Z,7.92
2023-01-13T14:32:18.651Z,7.97
2023-01-13T14:34:45.628Z,7.92
2023-01-13T14:37:42.703Z,7.91
2023-01-13T14:40:36.078Z,7.93
2023-01-13T14:43:04.296Z,7.94
2023-01-13T14:45:33.077Z,7.93
2023-01-13T14:48:01.271Z,7.93
2023-01-13T14:50:33.766Z,7.90
2023-01-13T14:53:01.673Z,7.86
2023-01-13T14:55:33.721Z,7.87
2023-01-13T14:58:21.993Z,7.86
2023-01-13T15:00:50.412Z,7.90
2023-01-13T15:03:18.848Z,7.92
2023-01-13T15:05:54.283Z,7.91
2023-01-13T15:08:35.183Z,7.94
2023-01-13T15:11:04.294Z,7.94
2023-01-13T15:13:35.620Z,7.96
2023-01-13T15:16:13.480Z,7.92
2023-01-13T15:18:41.230Z,7.93
2023-01-13T15:21:09.481Z,7.93
2023-01-13T15:23:36.561Z,7.93
2023-01-13T15:26:03.299Z,7.95
2023-01-13T15:28:31.875Z,7.92
2023-01-13T15:31:00.633Z,7.91
2023-01-13T15:33:27.640Z,7.92
2023-01-13T15:35:54.936Z,7.90
2023-01-13T15:38:23.338Z,7.89
2023-01-13T15:40:51.339Z,7.86
2023-01-13T15:43:41.755Z,7.86
2023-01-13T15:46:37.205Z,7.86
2023-01-13T15:49:18.126Z,7.83
2023-01-13T15:51:44.598Z,7.80
2023-01-13T15:54:11.958Z,7.76
2023-01-13T15:56:39.312Z,7.79
2023-01-13T15:59:15.286Z,7.82
2023-01-13T16:01:41.818Z,7.84
2023-01-13T16:04:09.814Z,7.87
2023-01-13T16:06:37.158Z,7.85
2023-01-13T16:09:04.316Z,7.85
2023-01-13T16:11:30.910Z,7.87
2023-01-13T16:13:57.532Z,7.87
2023-01-13T16:16:25.789Z,7.83
2023-01-13T16:18:53.575Z,7.82
2023-01-13T16:21:21.124Z,7.81
2023-01-13T16:23:49.527Z,7.81
2023-01-13T16:26:25.052Z,7.81
2023-01-13T16:28:52.933Z,7.81
2023-01-13T16:31:24.615Z,7.76
2023-01-13T16:33:52.213Z,7.76
2023-01-13T16:36:20.365Z,7.80
2023-01-13T16:38:47.867Z,7.85
2023-01-13T16:41:14.599Z,7.85
2023-01-13T16:43:41.083Z,7.84
2023-01-13T16:46:16.544Z,7.86
2023-01-13T16:48:43.049Z,7.94
2023-01-13T16:51:09.515Z,7.94
2023-01-13T16:53:35.963Z,7.95
2023-01-13T16:56:02.482Z,7.92
2023-01-13T16:58:28.931Z,7.91
2023-01-13T17:00:55.451Z,7.88
2023-01-13T17:03:22.053Z,7.84
2023-01-13T17:05:48.558Z,7.85
2023-01-13T17:08:17.909Z,7.84
2023-01-13T17:10:45.501Z,7.84
2023-01-13T17:13:16.376Z,7.89
2023-01-13T17:15:43.937Z,7.86
2023-01-13T17:18:11.447Z,7.85
2023-01-13T17:20:37.975Z,7.85
2023-01-13T17:23:04.408Z,7.85
2023-01-13T17:25:30.823Z,7.84
2023-01-13T17:27:58.034Z,7.86
2023-01-13T17:30:24.776Z,7.88
2023-01-13T17:32:51.238Z,7.89
2023-01-13T17:35:22.843Z,7.86
2023-01-13T17:37:49.312Z,7.88
2023-01-13T17:40:16.079Z,7.85
2023-01-13T17:42:42.699Z,7.82
2023-01-13T17:45:11.431Z,7.79
2023-01-13T17:47:38.566Z,7.78
2023-01-13T17:50:05.708Z,7.78
2023-01-13T17:52:33.620Z,7.78
2023-01-13T17:55:00.107Z,7.81
2023-01-13T17:57:26.565Z,7.81
2023-01-13T17:59:52.971Z,7.78
2023-01-13T18:02:19.591Z,7.79
2023-01-13T18:04:46.142Z,7.80
2023-01-13T18:07:12.576Z,7.79
2023-01-13T18:09:39.086Z,7.78
2023-01-13T18:12:06.724Z,7.77
2023-01-13T18:14:34.227Z,7.81
2023-01-13T18:17:01.088Z,7.85
2023-01-13T18:19:46.188Z,7.86
2023-01-13T18:22:32.531Z,7.92
2023-01-13T18:25:17.409Z,7.98
2023-01-13T18:27:43.855Z,8.04
2023-01-13T18:30:11.954Z,8.03
2023-01-13T18:32:38.469Z,8.07
2023-01-13T18:35:10.190Z,8.04
2023-01-13T18:37:40.032Z,8.11
2023-01-13T18:40:09.385Z,8.05
2023-01-13T18:42:52.174Z,8.05
2023-01-13T18:45:37.815Z,8.02
2023-01-13T18:48:05.280Z,7.96
2023-01-13T18:50:32.889Z,8.03
2023-01-13T18:52:59.416Z,8.02
2023-01-13T18:55:28.430Z,8.09
2023-01-13T18:57:56.021Z,8.00
2023-01-13T19:00:22.971Z,8.05
2023-01-13T19:05:34.065Z,8.12
2023-01-13T19:08:00.900Z,8.14
2023-01-13T19:10:31.730Z,8.13
2023-01-13T19:12:58.276Z,8.12
2023-01-13T19:15:24.723Z,8.11
2023-01-13T19:17:51.191Z,8.11
2023-01-13T19:20:17.908Z,8.07
2023-01-13T19:22:46.166Z,8.05
2023-01-13T19:25:12.684Z,8.03
2023-01-13T19:27:39.787Z,8.03
2023-01-13T19:30:06.943Z,8.06
2023-01-13T19:32:33.622Z,8.02
2023-01-13T19:35:00.871Z,7.94
2023-01-13T19:37:31.625Z,8.00
2023-01-13T19:39:59.093Z,8.04
2023-01-13T19:42:44.068Z,8.01
2023-01-13T19:45:27.613Z,7.94
2023-01-13T19:47:55.640Z,7.98
2023-01-13T19:50:22.107Z,7.96
2023-01-13T19:52:48.574Z,7.92
2023-01-13T19:55:15.020Z,7.92
2023-01-13T19:57:41.539Z,7.96
2023-01-13T20:00:10.052Z,7.92
2023-01-13T20:02:36.990Z,7.97
2023-01-13T20:05:06.444Z,7.92
2023-01-13T20:07:33.854Z,7.94
2023-01-13T20:10:01.512Z,8.02
2023-01-13T20:12:29.204Z,7.99
2023-01-13T20:14:56.013Z,7.93
2023-01-13T20:17:22.828Z,7.95
2023-01-13T20:19:49.361Z,7.92
2023-01-13T20:22:15.852Z,7.91
2023-01-13T20:24:42.648Z,7.83
2023-01-13T20:27:09.439Z,7.85
2023-01-13T20:29:36.238Z,7.81
2023-01-13T20:32:03.271Z,7.81
2023-01-13T20:34:29.779Z,7.77
2023-01-13T20:36:56.571Z,7.74
2023-01-13T20:39:26.262Z,7.82
2023-01-13T20:42:11.445Z,7.75
2023-01-13T20:44:37.947Z,7.79
2023-01-13T20:47:04.703Z,7.82
2023-01-13T20:49:31.229Z,7.79
2023-01-13T20:51:57.955Z,7.77
2023-01-13T20:54:25.071Z,7.72
2023-01-13T20:56:52.107Z,7.70
2023-01-13T20:59:19.824Z,7.73
2023-01-13T21:01:46.506Z,7.68
2023-01-13T21:04:13.005Z,7.64
2023-01-13T21:06:39.627Z,7.64
2023-01-13T21:09:06.072Z,7.63
2023-01-13T21:11:50.941Z,7.64
2023-01-13T21:14:40.153Z,7.62
2023-01-13T21:17:28.275Z,7.61
2023-01-13T21:19:55.204Z,7.59
2023-01-13T21:22:21.795Z,7.56
2023-01-13T21:24:48.383Z,7.54
2023-01-13T21:27:14.975Z,7.57
2023-01-13T21:29:41.452Z,7.59
2023-01-13T21:32:07.931Z,7.63
2023-01-13T21:34:35.373Z,7.63
2023-01-13T21:37:01.967Z,7.59
2023-01-13T21:39:28.557Z,7.60
2023-01-13T21:42:13.544Z,7.59
2023-01-13T21:44:59.085Z,7.58
2023-01-13T21:47:44.276Z,7.56
2023-01-13T21:50:13.034Z,7.57
2023-01-13T21:52:42.645Z,7.62
2023-01-13T21:55:29.269Z,7.54
2023-01-13T21:58:11.696Z,7.53
2023-01-13T22:00:41.882Z,7.53
2023-01-13T22:03:10.061Z,7.62
2023-01-13T22:05:37.218Z,7.55
2023-01-13T22:08:04.767Z,7.50
2023-01-13T22:10:31.828Z,7.50
2023-01-13T22:13:20.806Z,7.51
2023-01-13T22:15:47.372Z,7.52
2023-01-13T22:18:13.787Z,7.49
2023-01-13T22:20:42.012Z,7.51
2023-01-13T22:23:08.619Z,7.48
2023-01-13T22:25:35.166Z,7.54
2023-01-13T22:28:05.957Z,7.51
2023-01-13T22:30:33.044Z,7.51
2023-01-13T22:33:00.242Z,7.48
2023-01-13T22:35:27.287Z,7.49
2023-01-13T22:37:53.866Z,7.50
2023-01-13T22:40:20.409Z,7.51
2023-01-13T22:42:46.964Z,7.52
2023-01-13T22:45:14.133Z,7.54
2023-01-13T22:47:40.773Z,7.54
2023-01-13T22:50:08.173Z,7.57
2023-01-13T22:52:35.685Z,7.58
2023-01-13T22:55:02.163Z,7.55
2023-01-13T22:57:36.375Z,7.52
2023-01-13T23:00:10.114Z,7.52
2023-01-13T23:02:38.003Z,7.50
2023-01-13T23:05:04.633Z,7.50
2023-01-13T23:07:31.073Z,7.49
2023-01-13T23:09:57.523Z,7.50
2023-01-13T23:12:23.983Z,7.48
2023-01-13T23:14:50.437Z,7.52
2023-01-13T23:17:16.911Z,7.55
2023-01-13T23:19:43.372Z,7.58
2023-01-13T23:22:09.819Z,7.53
2023-01-13T23:24:36.300Z,7.55
2023-01-13T23:27:02.854Z,7.59
2023-01-13T23:29:29.305Z,7.52
2023-01-13T23:31:55.736Z,7.51
2023-01-13T23:34:22.213Z,7.50
2023-01-13T23:36:48.666Z,7.50
2023-01-13T23:39:15.142Z,7.50
2023-01-13T23:41:41.745Z,7.52
2023-01-13T23:44:09.285Z,7.47
2023-01-13T23:46:35.796Z,7.48
2023-01-13T23:49:03.580Z,7.53
2023-01-13T23:51:30.497Z,7.50
2023-01-13T23:53:58.545Z,7.48
2023-01-13T23:56:30.656Z,7.48
2023-01-13T23:58:57.905Z,7.47
